sensor_id;sensor_type;location;lat;lon;timestamp;P1;durP1;ratioP1;P2;durP2;ratioP2
71959;SDS011;59832;51.146;14.024;2023-07-31T04:02:32;2.47;;;1.52;;
71959;SDS011;59832;51.146;14.024;2023-07-31T04:04:58;2.80;;;1.60;;
71959;SDS011;59832;51.146;14.024;2023-07-31T04:07:25;4.43;;;1.42;;
71959;SDS011;59832;51.146;14.024;2023-07-31T04:09:51;2.08;;;1.25;;
71959;SDS011;59832;51.146;14.024;2023-07-31T04:12:17;2.55;;;1.23;;
71959;SDS011;59832;51.146;14.024;2023-07-31T04:14:44;2.17;;;1.30;;
71959;SDS011;59832;51.146;14.024;2023-07-31T04:17:10;2.88;;;1.10;;
71959;SDS011;59832;51.146;14.024;2023-07-31T04:19:37;2.90;;;1.30;;
71959;SDS011;59832;51.146;14.024;2023-07-31T04:22:04;4.13;;;1.67;;
71959;SDS011;59832;51.146;14.024;2023-07-31T04:24:30;1.97;;;1.27;;
71959;SDS011;59832;51.146;14.024;2023-07-31T04:26:57;1.70;;;1.25;;
71959;SDS011;59832;51.146;14.024;2023-07-31T04:29:23;2.43;;;1.10;;
71959;SDS011;59832;51.146;14.024;2023-07-31T04:31:50;2.43;;;1.20;;
71959;SDS011;59832;51.146;14.024;2023-07-31T04:34:16;1.83;;;1.30;;
71959;SDS011;59832;51.146;14.024;2023-07-31T04:36:43;2.42;;;1.58;;
71959;SDS011;59832;51.146;14.024;2023-07-31T04:39:09;2.55;;;1.30;;
71959;SDS011;59832;51.146;14.024;2023-07-31T04:41:36;2.97;;;1.57;;
71959;SDS011;59832;51.146;14.024;2023-07-31T04:44:02;3.67;;;1.60;;
71959;SDS011;59832;51.146;14.024;2023-07-31T04:48:56;2.25;;;1.60;;
71959;SDS011;59832;51.146;14.024;2023-07-31T04:51:23;4.50;;;1.90;;
71959;SDS011;59832;51.146;14.024;2023-07-31T04:53:49;4.38;;;1.90;;
71959;SDS011;59832;51.146;14.024;2023-07-31T04:56:16;4.38;;;2.20;;
71959;SDS011;59832;51.146;14.024;2023-07-31T04:58:42;2.50;;;1.73;;
71959;SDS011;59832;51.146;14.024;2023-07-31T05:01:09;3.73;;;1.80;;
71959;SDS011;59832;51.146;14.024;2023-07-31T05:03:35;3.42;;;1.67;;
71959;SDS011;59832;51.146;14.024;2023-07-31T05:06:02;2.97;;;1.88;;
71959;SDS011;59832;51.146;14.024;2023-07-31T05:08:28;3.10;;;1.97;;
71959;SDS011;59832;51.146;14.024;2023-07-31T05:10:55;3.80;;;1.95;;
71959;SDS011;59832;51.146;14.024;2023-07-31T05:13:21;5.03;;;1.80;;
71959;SDS011;59832;51.146;14.024;2023-07-31T05:15:47;2.87;;;1.87;;
71959;SDS011;59832;51.146;14.024;2023-07-31T05:18:15;4.00;;;1.80;;
71959;SDS011;59832;51.146;14.024;2023-07-31T05:20:42;4.82;;;2.10;;
71959;SDS011;59832;51.146;14.024;2023-07-31T05:23:08;3.40;;;1.90;;
71959;SDS011;59832;51.146;14.024;2023-07-31T05:25:35;2.83;;;1.70;;
71959;SDS011;59832;51.146;14.024;2023-07-31T05:28:01;3.70;;;1.80;;
71959;SDS011;59832;51.146;14.024;2023-07-31T05:30:29;4.73;;;1.77;;
71959;SDS011;59832;51.146;14.024;2023-07-31T05:32:57;3.25;;;2.13;;
71959;SDS011;59832;51.146;14.024;2023-07-31T05:35:23;4.03;;;1.92;;
71959;SDS011;59832;51.146;14.024;2023-07-31T05:37:50;3.25;;;2.00;;
71959;SDS011;59832;51.146;14.024;2023-07-31T05:40:16;4.22;;;1.85;;
71959;SDS011;59832;51.146;14.024;2023-07-31T05:42:43;4.67;;;2.10;;
71959;SDS011;59832;51.146;14.024;2023-07-31T05:45:09;4.00;;;1.97;;
71959;SDS011;59832;51.146;14.024;2023-07-31T05:47:36;3.35;;;1.77;;
71959;SDS011;59832;51.146;14.024;2023-07-31T05:50:02;2.87;;;2.10;;
71959;SDS011;59832;51.146;14.024;2023-07-31T05:52:29;2.88;;;2.00;;
71959;SDS011;59832;51.146;14.024;2023-07-31T05:54:56;3.90;;;2.20;;
71959;SDS011;59832;51.146;14.024;2023-07-31T05:57:23;5.85;;;1.80;;
71959;SDS011;59832;51.146;14.024;2023-07-31T05:59:49;3.53;;;2.50;;
71959;SDS011;59832;51.146;14.024;2023-07-31T06:02:15;2.92;;;2.03;;
71959;SDS011;59832;51.146;14.024;2023-07-31T06:04:42;2.63;;;1.80;;
71959;SDS011;59832;51.146;14.024;2023-07-31T06:07:08;4.20;;;1.80;;
71959;SDS011;59832;51.146;14.024;2023-07-31T06:09:35;7.72;;;2.50;;
71959;SDS011;59832;51.146;14.024;2023-07-31T06:12:01;4.90;;;2.10;;
71959;SDS011;59832;51.146;14.024;2023-07-31T06:14:28;3.00;;;1.80;;
71959;SDS011;59832;51.146;14.024;2023-07-31T06:16:54;3.70;;;1.90;;
71959;SDS011;59832;51.146;14.024;2023-07-31T06:19:21;3.10;;;1.90;;
71959;SDS011;59832;51.146;14.024;2023-07-31T06:21:47;3.90;;;2.03;;
71959;SDS011;59832;51.146;14.024;2023-07-31T06:24:14;4.70;;;2.00;;
71959;SDS011;59832;51.146;14.024;2023-07-31T06:26:45;4.60;;;1.95;;
71959;SDS011;59832;51.146;14.024;2023-07-31T06:29:11;3.25;;;1.92;;
71959;SDS011;59832;51.146;14.024;2023-07-31T06:31:38;4.32;;;1.88;;
71959;SDS011;59832;51.146;14.024;2023-07-31T06:34:04;4.10;;;2.03;;
71959;SDS011;59832;51.146;14.024;2023-07-31T06:36:31;2.45;;;1.80;;
71959;SDS011;59832;51.146;14.024;2023-07-31T06:38:57;3.07;;;1.80;;
71959;SDS011;59832;51.146;14.024;2023-07-31T06:41:24;3.70;;;1.92;;
71959;SDS011;59832;51.146;14.024;2023-07-31T06:43:50;3.42;;;1.90;;
71959;SDS011;59832;51.146;14.024;2023-07-31T06:46:17;3.47;;;2.10;;
71959;SDS011;59832;51.146;14.024;2023-07-31T06:48:43;2.58;;;1.95;;
71959;SDS011;59832;51.146;14.024;2023-07-31T06:51:10;4.23;;;2.03;;
71959;SDS011;59832;51.146;14.024;2023-07-31T06:53:36;3.90;;;1.90;;
71959;SDS011;59832;51.146;14.024;2023-07-31T06:56:03;2.67;;;2.08;;
71959;SDS011;59832;51.146;14.024;2023-07-31T06:58:30;3.58;;;2.20;;
71959;SDS011;59832;51.146;14.024;2023-07-31T07:00:56;2.92;;;2.08;;
71959;SDS011;59832;51.146;14.024;2023-07-31T07:03:23;2.93;;;2.03;;
71959;SDS011;59832;51.146;14.024;2023-07-31T07:05:49;3.58;;;2.10;;
71959;SDS011;59832;51.146;14.024;2023-07-31T07:08:16;2.70;;;1.90;;
71959;SDS011;59832;51.146;14.024;2023-07-31T07:10:43;3.67;;;2.30;;
71959;SDS011;59832;51.146;14.024;2023-07-31T07:13:10;2.70;;;2.07;;
71959;SDS011;59832;51.146;14.024;2023-07-31T07:15:36;3.80;;;2.30;;
71959;SDS011;59832;51.146;14.024;2023-07-31T07:18:03;5.53;;;2.07;;
71959;SDS011;59832;51.146;14.024;2023-07-31T07:20:30;2.45;;;2.15;;
71959;SDS011;59832;51.146;14.024;2023-07-31T07:22:56;4.18;;;2.30;;
71959;SDS011;59832;51.146;14.024;2023-07-31T07:25:23;3.75;;;2.05;;
71959;SDS011;59832;51.146;14.024;2023-07-31T07:27:49;5.05;;;2.15;;
71959;SDS011;59832;51.146;14.024;2023-07-31T07:30:16;3.28;;;1.98;;
71959;SDS011;59832;51.146;14.024;2023-07-31T07:32:43;2.97;;;2.10;;
71959;SDS011;59832;51.146;14.024;2023-07-31T07:35:10;4.20;;;2.17;;
71959;SDS011;59832;51.146;14.024;2023-07-31T07:37:36;7.65;;;2.13;;
71959;SDS011;59832;51.146;14.024;2023-07-31T07:40:03;2.90;;;2.13;;
71959;SDS011;59832;51.146;14.024;2023-07-31T07:42:30;4.93;;;2.13;;
71959;SDS011;59832;51.146;14.024;2023-07-31T07:44:56;2.90;;;1.93;;
71959;SDS011;59832;51.146;14.024;2023-07-31T07:47:23;3.90;;;1.98;;
71959;SDS011;59832;51.146;14.024;2023-07-31T07:49:51;3.15;;;2.25;;
71959;SDS011;59832;51.146;14.024;2023-07-31T07:52:18;3.92;;;2.13;;
71959;SDS011;59832;51.146;14.024;2023-07-31T07:54:45;3.97;;;2.00;;
71959;SDS011;59832;51.146;14.024;2023-07-31T07:57:11;4.73;;;2.13;;
71959;SDS011;59832;51.146;14.024;2023-07-31T07:59:38;3.37;;;1.90;;
71959;SDS011;59832;51.146;14.024;2023-07-31T08:02:05;3.70;;;1.90;;
71959;SDS011;59832;51.146;14.024;2023-07-31T08:04:31;2.83;;;1.85;;
71959;SDS011;59832;51.146;14.024;2023-07-31T08:06:58;7.60;;;2.00;;
71959;SDS011;59832;51.146;14.024;2023-07-31T08:09:24;3.77;;;2.00;;
71959;SDS011;59832;51.146;14.024;2023-07-31T08:11:50;3.67;;;2.10;;
71959;SDS011;59832;51.146;14.024;2023-07-31T08:14:17;3.93;;;2.13;;
71959;SDS011;59832;51.146;14.024;2023-07-31T08:16:43;2.63;;;1.87;;
71959;SDS011;59832;51.146;14.024;2023-07-31T08:19:10;3.67;;;2.17;;
71959;SDS011;59832;51.146;14.024;2023-07-31T08:21:37;3.38;;;2.00;;
71959;SDS011;59832;51.146;14.024;2023-07-31T08:24:03;4.87;;;2.10;;
71959;SDS011;59832;51.146;14.024;2023-07-31T08:26:30;5.30;;;2.33;;
71959;SDS011;59832;51.146;14.024;2023-07-31T08:28:56;2.30;;;2.10;;
71959;SDS011;59832;51.146;14.024;2023-07-31T08:31:23;3.58;;;2.00;;
71959;SDS011;59832;51.146;14.024;2023-07-31T08:33:50;2.22;;;1.73;;
71959;SDS011;59832;51.146;14.024;2023-07-31T08:36:16;3.43;;;1.93;;
71959;SDS011;59832;51.146;14.024;2023-07-31T08:38:45;3.47;;;1.90;;
71959;SDS011;59832;51.146;14.024;2023-07-31T08:41:11;4.70;;;1.85;;
71959;SDS011;59832;51.146;14.024;2023-07-31T08:43:39;2.92;;;1.60;;
71959;SDS011;59832;51.146;14.024;2023-07-31T08:46:07;5.32;;;2.08;;
71959;SDS011;59832;51.146;14.024;2023-07-31T08:48:34;3.35;;;2.20;;
71959;SDS011;59832;51.146;14.024;2023-07-31T08:51:03;3.67;;;1.98;;
71959;SDS011;59832;51.146;14.024;2023-07-31T08:53:29;2.65;;;2.20;;
71959;SDS011;59832;51.146;14.024;2023-07-31T08:55:56;2.83;;;2.15;;
71959;SDS011;59832;51.146;14.024;2023-07-31T08:58:24;2.22;;;1.85;;
71959;SDS011;59832;51.146;14.024;2023-07-31T09:00:53;3.03;;;1.80;;
71959;SDS011;59832;51.146;14.024;2023-07-31T09:03:21;3.33;;;1.90;;
71959;SDS011;59832;51.146;14.024;2023-07-31T09:05:51;3.28;;;1.83;;
71959;SDS011;59832;51.146;14.024;2023-07-31T09:08:19;7.20;;;2.15;;
71959;SDS011;59832;51.146;14.024;2023-07-31T09:10:47;2.15;;;1.67;;
71959;SDS011;59832;51.146;14.024;2023-07-31T09:13:16;2.53;;;1.90;;
71959;SDS011;59832;51.146;14.024;2023-07-31T09:15:43;3.75;;;2.05;;
71959;SDS011;59832;51.146;14.024;2023-07-31T09:18:11;2.33;;;1.98;;
71959;SDS011;59832;51.146;14.024;2023-07-31T09:20:38;2.53;;;1.83;;
71959;SDS011;59832;51.146;14.024;2023-07-31T09:23:09;2.63;;;1.85;;
71959;SDS011;59832;51.146;14.024;2023-07-31T09:25:36;2.83;;;2.03;;
71959;SDS011;59832;51.146;14.024;2023-07-31T09:30:32;4.35;;;2.10;;
71959;SDS011;59832;51.146;14.024;2023-07-31T09:33:10;2.33;;;1.60;;
71959;SDS011;59832;51.146;14.024;2023-07-31T09:35:37;5.47;;;1.80;;
71959;SDS011;59832;51.146;14.024;2023-07-31T09:38:09;2.47;;;1.80;;
71959;SDS011;59832;51.146;14.024;2023-07-31T09:40:38;4.72;;;1.95;;
71959;SDS011;59832;51.146;14.024;2023-07-31T09:43:06;3.15;;;1.67;;
71959;SDS011;59832;51.146;14.024;2023-07-31T09:45:35;4.68;;;1.90;;
71959;SDS011;59832;51.146;14.024;2023-07-31T09:48:07;4.88;;;2.10;;
71959;SDS011;59832;51.146;14.024;2023-07-31T09:50:43;4.95;;;2.42;;
71959;SDS011;59832;51.146;14.024;2023-07-31T09:53:15;5.55;;;2.08;;
71959;SDS011;59832;51.146;14.024;2023-07-31T09:55:44;4.70;;;1.95;;
71959;SDS011;59832;51.146;14.024;2023-07-31T09:58:11;2.88;;;2.05;;
71959;SDS011;59832;51.146;14.024;2023-07-31T10:00:39;2.83;;;1.88;;
71959;SDS011;59832;51.146;14.024;2023-07-31T10:03:07;2.22;;;1.70;;
71959;SDS011;59832;51.146;14.024;2023-07-31T10:05:40;5.43;;;2.10;;
71959;SDS011;59832;51.146;14.024;2023-07-31T10:08:10;3.38;;;2.00;;
71959;SDS011;59832;51.146;14.024;2023-07-31T10:10:43;3.15;;;2.00;;
71959;SDS011;59832;51.146;14.024;2023-07-31T10:13:10;4.45;;;2.00;;
71959;SDS011;59832;51.146;14.024;2023-07-31T10:18:05;3.05;;;1.80;;
71959;SDS011;59832;51.146;14.024;2023-07-31T10:20:33;3.95;;;1.98;;
71959;SDS011;59832;51.146;14.024;2023-07-31T10:25:27;2.17;;;1.70;;
71959;SDS011;59832;51.146;14.024;2023-07-31T10:27:54;6.15;;;1.80;;
71959;SDS011;59832;51.146;14.024;2023-07-31T10:30:22;3.08;;;1.90;;
71959;SDS011;59832;51.146;14.024;2023-07-31T10:32:52;2.47;;;1.80;;
71959;SDS011;59832;51.146;14.024;2023-07-31T10:35:19;4.10;;;2.03;;
71959;SDS011;59832;51.146;14.024;2023-07-31T10:37:48;4.13;;;2.22;;
71959;SDS011;59832;51.146;14.024;2023-07-31T10:42:52;2.28;;;1.80;;
71959;SDS011;59832;51.146;14.024;2023-07-31T10:45:34;2.80;;;1.95;;
71959;SDS011;59832;51.146;14.024;2023-07-31T10:48:03;2.90;;;1.90;;
71959;SDS011;59832;51.146;14.024;2023-07-31T10:50:38;4.22;;;2.03;;
71959;SDS011;59832;51.146;14.024;2023-07-31T10:53:22;2.13;;;1.92;;
71959;SDS011;59832;51.146;14.024;2023-07-31T10:55:50;6.35;;;2.17;;
71959;SDS011;59832;51.146;14.024;2023-07-31T10:58:20;2.72;;;1.77;;
71959;SDS011;59832;51.146;14.024;2023-07-31T11:00:47;3.45;;;1.90;;
71959;SDS011;59832;51.146;14.024;2023-07-31T11:03:16;2.78;;;1.80;;
71959;SDS011;59832;51.146;14.024;2023-07-31T11:10:49;2.53;;;1.77;;
71959;SDS011;59832;51.146;14.024;2023-07-31T11:13:17;3.28;;;2.03;;
71959;SDS011;59832;51.146;14.024;2023-07-31T11:15:44;2.17;;;1.90;;
71959;SDS011;59832;51.146;14.024;2023-07-31T11:18:11;2.90;;;1.70;;
71959;SDS011;59832;51.146;14.024;2023-07-31T11:20:37;3.63;;;2.10;;
71959;SDS011;59832;51.146;14.024;2023-07-31T11:25:35;3.00;;;1.90;;
71959;SDS011;59832;51.146;14.024;2023-07-31T11:28:06;1.80;;;1.70;;
71959;SDS011;59832;51.146;14.024;2023-07-31T11:30:35;4.88;;;2.25;;
71959;SDS011;59832;51.146;14.024;2023-07-31T11:33:02;3.05;;;2.03;;
71959;SDS011;59832;51.146;14.024;2023-07-31T11:35:30;2.40;;;2.00;;
71959;SDS011;59832;51.146;14.024;2023-07-31T11:37:58;3.90;;;2.40;;
71959;SDS011;59832;51.146;14.024;2023-07-31T11:40:25;3.42;;;1.85;;
71959;SDS011;59832;51.146;14.024;2023-07-31T11:42:58;2.38;;;2.08;;
71959;SDS011;59832;51.146;14.024;2023-07-31T11:45:30;2.72;;;1.90;;
71959;SDS011;59832;51.146;14.024;2023-07-31T11:47:57;3.05;;;2.10;;
71959;SDS011;59832;51.146;14.024;2023-07-31T11:50:23;3.40;;;1.90;;
71959;SDS011;59832;51.146;14.024;2023-07-31T11:52:57;2.05;;;1.80;;
71959;SDS011;59832;51.146;14.024;2023-07-31T11:55:27;2.85;;;2.05;;
71959;SDS011;59832;51.146;14.024;2023-07-31T12:00:23;3.22;;;2.10;;
71959;SDS011;59832;51.146;14.024;2023-07-31T12:02:50;3.13;;;2.17;;
71959;SDS011;59832;51.146;14.024;2023-07-31T12:05:17;2.95;;;2.05;;
71959;SDS011;59832;51.146;14.024;2023-07-31T12:07:45;5.45;;;2.50;;
71959;SDS011;59832;51.146;14.024;2023-07-31T12:10:25;5.35;;;2.22;;
71959;SDS011;59832;51.146;14.024;2023-07-31T12:12:55;2.00;;;1.80;;
71959;SDS011;59832;51.146;14.024;2023-07-31T12:15:32;2.65;;;1.80;;
71959;SDS011;59832;51.146;14.024;2023-07-31T12:17:59;2.47;;;2.05;;
71959;SDS011;59832;51.146;14.024;2023-07-31T12:20:26;3.00;;;2.05;;
71959;SDS011;59832;51.146;14.024;2023-07-31T12:22:52;2.05;;;1.83;;
71959;SDS011;59832;51.146;14.024;2023-07-31T12:25:22;2.08;;;1.70;;
71959;SDS011;59832;51.146;14.024;2023-07-31T12:27:50;2.00;;;1.80;;
71959;SDS011;59832;51.146;14.024;2023-07-31T12:30:29;2.15;;;1.95;;
71959;SDS011;59832;51.146;14.024;2023-07-31T12:33:02;1.92;;;1.60;;
71959;SDS011;59832;51.146;14.024;2023-07-31T12:35:36;1.88;;;1.60;;
71959;SDS011;59832;51.146;14.024;2023-07-31T12:38:04;2.20;;;1.60;;
71959;SDS011;59832;51.146;14.024;2023-07-31T12:40:30;1.98;;;1.58;;
71959;SDS011;59832;51.146;14.024;2023-07-31T12:43:00;1.80;;;1.67;;
71959;SDS011;59832;51.146;14.024;2023-07-31T12:45:28;2.00;;;1.45;;
71959;SDS011;59832;51.146;14.024;2023-07-31T12:47:55;3.53;;;1.98;;
71959;SDS011;59832;51.146;14.024;2023-07-31T12:50:22;1.63;;;1.52;;
71959;SDS011;59832;51.146;14.024;2023-07-31T12:52:49;2.05;;;1.70;;
71959;SDS011;59832;51.146;14.024;2023-07-31T12:55:16;5.25;;;1.80;;
71959;SDS011;59832;51.146;14.024;2023-07-31T12:57:42;1.80;;;1.70;;
71959;SDS011;59832;51.146;14.024;2023-07-31T13:00:09;1.70;;;1.60;;
71959;SDS011;59832;51.146;14.024;2023-07-31T13:05:02;2.03;;;1.73;;
71959;SDS011;59832;51.146;14.024;2023-07-31T13:07:29;1.90;;;1.40;;
71959;SDS011;59832;51.146;14.024;2023-07-31T13:09:56;1.88;;;1.50;;
71959;SDS011;59832;51.146;14.024;2023-07-31T13:12:22;4.47;;;1.40;;
71959;SDS011;59832;51.146;14.024;2023-07-31T13:14:49;2.10;;;1.60;;
71959;SDS011;59832;51.146;14.024;2023-07-31T13:17:19;1.90;;;1.40;;
71959;SDS011;59832;51.146;14.024;2023-07-31T13:19:45;3.10;;;1.40;;
71959;SDS011;59832;51.146;14.024;2023-07-31T13:22:12;4.13;;;1.65;;
71959;SDS011;59832;51.146;14.024;2023-07-31T13:24:38;4.00;;;1.67;;
71959;SDS011;59832;51.146;14.024;2023-07-31T13:27:05;5.28;;;1.83;;
71959;SDS011;59832;51.146;14.024;2023-07-31T13:29:31;2.65;;;1.75;;
71959;SDS011;59832;51.146;14.024;2023-07-31T13:31:58;3.55;;;1.58;;
71959;SDS011;59832;51.146;14.024;2023-07-31T13:34:24;2.47;;;1.80;;
71959;SDS011;59832;51.146;14.024;2023-07-31T13:36:51;1.90;;;1.73;;
71959;SDS011;59832;51.146;14.024;2023-07-31T13:39:17;5.18;;;1.90;;
71959;SDS011;59832;51.146;14.024;2023-07-31T13:41:44;2.72;;;1.63;;
71959;SDS011;59832;51.146;14.024;2023-07-31T13:44:10;2.90;;;1.73;;
71959;SDS011;59832;51.146;14.024;2023-07-31T13:46:37;1.70;;;1.60;;
71959;SDS011;59832;51.146;14.024;2023-07-31T13:51:30;1.83;;;1.70;;
71959;SDS011;59832;51.146;14.024;2023-07-31T13:53:57;1.65;;;1.48;;
71959;SDS011;59832;51.146;14.024;2023-07-31T13:56:24;1.60;;;1.50;;
71959;SDS011;59832;51.146;14.024;2023-07-31T13:58:50;2.33;;;1.80;;
71959;SDS011;59832;51.146;14.024;2023-07-31T14:01:17;3.47;;;1.65;;
71959;SDS011;59832;51.146;14.024;2023-07-31T14:03:43;2.42;;;1.80;;
71959;SDS011;59832;51.146;14.024;2023-07-31T14:06:12;1.95;;;1.70;;
71959;SDS011;59832;51.146;14.024;2023-07-31T14:08:39;2.22;;;1.50;;
71959;SDS011;59832;51.146;14.024;2023-07-31T14:11:05;2.28;;;1.60;;
71959;SDS011;59832;51.146;14.024;2023-07-31T14:13:31;2.67;;;1.80;;
71959;SDS011;59832;51.146;14.024;2023-07-31T14:15:58;2.20;;;1.60;;
71959;SDS011;59832;51.146;14.024;2023-07-31T14:18:24;3.15;;;2.00;;
71959;SDS011;59832;51.146;14.024;2023-07-31T14:20:51;2.53;;;1.77;;
71959;SDS011;59832;51.146;14.024;2023-07-31T14:23:18;3.08;;;1.70;;
71959;SDS011;59832;51.146;14.024;2023-07-31T14:25:46;3.25;;;1.60;;
71959;SDS011;59832;51.146;14.024;2023-07-31T14:28:13;1.65;;;1.55;;
71959;SDS011;59832;51.146;14.024;2023-07-31T14:30:40;2.47;;;1.70;;
71959;SDS011;59832;51.146;14.024;2023-07-31T14:33:06;1.85;;;1.45;;
71959;SDS011;59832;51.146;14.024;2023-07-31T14:35:34;3.30;;;1.73;;
71959;SDS011;59832;51.146;14.024;2023-07-31T14:38:01;2.58;;;1.85;;
71959;SDS011;59832;51.146;14.024;2023-07-31T14:40:27;2.55;;;1.83;;
71959;SDS011;59832;51.146;14.024;2023-07-31T14:42:54;1.92;;;1.73;;
71959;SDS011;59832;51.146;14.024;2023-07-31T14:45:20;3.40;;;2.00;;
71959;SDS011;59832;51.146;14.024;2023-07-31T14:47:47;2.22;;;2.03;;
71959;SDS011;59832;51.146;14.024;2023-07-31T14:50:13;5.90;;;1.90;;
71959;SDS011;59832;51.146;14.024;2023-07-31T14:52:40;2.15;;;1.80;;
71959;SDS011;59832;51.146;14.024;2023-07-31T14:55:06;2.85;;;1.63;;
71959;SDS011;59832;51.146;14.024;2023-07-31T14:57:33;1.48;;;1.33;;
71959;SDS011;59832;51.146;14.024;2023-07-31T15:00:00;6.28;;;2.13;;
71959;SDS011;59832;51.146;14.024;2023-07-31T15:02:26;3.55;;;2.13;;
71959;SDS011;59832;51.146;14.024;2023-07-31T15:04:54;2.97;;;2.00;;
71959;SDS011;59832;51.146;14.024;2023-07-31T15:07:20;2.05;;;1.85;;
71959;SDS011;59832;51.146;14.024;2023-07-31T15:09:46;2.10;;;1.73;;
71959;SDS011;59832;51.146;14.024;2023-07-31T15:12:13;3.05;;;2.20;;
71959;SDS011;59832;51.146;14.024;2023-07-31T15:14:39;3.83;;;2.10;;
71959;SDS011;59832;51.146;14.024;2023-07-31T15:17:06;4.03;;;2.03;;
71959;SDS011;59832;51.146;14.024;2023-07-31T15:19:32;2.90;;;2.22;;
71959;SDS011;59832;51.146;14.024;2023-07-31T15:22:01;3.10;;;2.05;;
71959;SDS011;59832;51.146;14.024;2023-07-31T15:24:28;3.05;;;1.80;;
71959;SDS011;59832;51.146;14.024;2023-07-31T15:26:55;3.22;;;1.90;;
71959;SDS011;59832;51.146;14.024;2023-07-31T15:29:21;2.45;;;1.77;;
71959;SDS011;59832;51.146;14.024;2023-07-31T15:31:48;3.30;;;2.25;;
71959;SDS011;59832;51.146;14.024;2023-07-31T15:34:15;1.98;;;1.55;;
71959;SDS011;59832;51.146;14.024;2023-07-31T15:36:41;2.42;;;1.88;;
71959;SDS011;59832;51.146;14.024;2023-07-31T15:39:08;2.10;;;1.73;;
71959;SDS011;59832;51.146;14.024;2023-07-31T15:41:35;2.20;;;1.65;;
71959;SDS011;59832;51.146;14.024;2023-07-31T15:44:02;2.38;;;1.80;;
71959;SDS011;59832;51.146;14.024;2023-07-31T15:46:29;2.38;;;1.83;;
71959;SDS011;59832;51.146;14.024;2023-07-31T15:48:55;3.92;;;2.20;;
71959;SDS011;59832;51.146;14.024;2023-07-31T15:51:22;2.42;;;1.90;;
71959;SDS011;59832;51.146;14.024;2023-07-31T15:53:50;3.75;;;1.90;;
71959;SDS011;59832;51.146;14.024;2023-07-31T15:56:17;2.50;;;1.88;;
71959;SDS011;59832;51.146;14.024;2023-07-31T15:58:44;2.38;;;2.10;;
71959;SDS011;59832;51.146;14.024;2023-07-31T16:01:10;2.47;;;2.00;;
71959;SDS011;59832;51.146;14.024;2023-07-31T16:03:37;2.38;;;2.00;;
71959;SDS011;59832;51.146;14.024;2023-07-31T16:06:03;2.13;;;1.90;;
71959;SDS011;59832;51.146;14.024;2023-07-31T16:08:30;3.35;;;2.45;;
71959;SDS011;59832;51.146;14.024;2023-07-31T16:10:56;2.92;;;2.05;;
71959;SDS011;59832;51.146;14.024;2023-07-31T16:13:23;2.47;;;1.88;;
71959;SDS011;59832;51.146;14.024;2023-07-31T16:15:49;2.30;;;2.10;;
71959;SDS011;59832;51.146;14.024;2023-07-31T16:18:16;4.72;;;2.30;;
71959;SDS011;59832;51.146;14.024;2023-07-31T16:20:42;4.93;;;2.13;;
71959;SDS011;59832;51.146;14.024;2023-07-31T16:23:09;2.83;;;2.10;;
71959;SDS011;59832;51.146;14.024;2023-07-31T16:25:35;2.40;;;1.88;;
71959;SDS011;59832;51.146;14.024;2023-07-31T16:28:02;2.17;;;1.95;;
71959;SDS011;59832;51.146;14.024;2023-07-31T16:30:28;2.63;;;2.03;;
71959;SDS011;59832;51.146;14.024;2023-07-31T16:32:55;2.38;;;1.90;;
71959;SDS011;59832;51.146;14.024;2023-07-31T16:35:22;2.63;;;2.00;;
71959;SDS011;59832;51.146;14.024;2023-07-31T16:37:48;3.05;;;1.83;;
71959;SDS011;59832;51.146;14.024;2023-07-31T16:40:15;2.00;;;1.80;;
71959;SDS011;59832;51.146;14.024;2023-07-31T16:42:41;2.40;;;1.88;;
71959;SDS011;59832;51.146;14.024;2023-07-31T16:45:08;2.22;;;1.83;;
71959;SDS011;59832;51.146;14.024;2023-07-31T16:47:34;1.90;;;1.73;;
71959;SDS011;59832;51.146;14.024;2023-07-31T16:50:01;2.20;;;1.88;;
71959;SDS011;59832;51.146;14.024;2023-07-31T16:52:27;1.80;;;1.70;;
71959;SDS011;59832;51.146;14.024;2023-07-31T16:54:54;2.00;;;1.90;;
71959;SDS011;59832;51.146;14.024;2023-07-31T16:57:20;2.00;;;1.80;;
71959;SDS011;59832;51.146;14.024;2023-07-31T16:59:48;2.95;;;1.92;;
71959;SDS011;59832;51.146;14.024;2023-07-31T17:02:15;2.13;;;1.90;;
71959;SDS011;59832;51.146;14.024;2023-07-31T17:04:41;4.22;;;2.03;;
71959;SDS011;59832;51.146;14.024;2023-07-31T17:07:08;2.80;;;1.90;;
71959;SDS011;59832;51.146;14.024;2023-07-31T17:09:34;5.85;;;1.67;;
71959;SDS011;59832;51.146;14.024;2023-07-31T17:12:01;5.67;;;1.83;;
71959;SDS011;59832;51.146;14.024;2023-07-31T17:14:29;3.38;;;1.90;;
71959;SDS011;59832;51.146;14.024;2023-07-31T17:16:55;3.27;;;2.00;;
71959;SDS011;59832;51.146;14.024;2023-07-31T17:19:22;3.15;;;2.17;;
71959;SDS011;59832;51.146;14.024;2023-07-31T17:21:48;1.95;;;1.80;;
71959;SDS011;59832;51.146;14.024;2023-07-31T17:24:14;3.33;;;2.35;;
71959;SDS011;59832;51.146;14.024;2023-07-31T17:26:41;2.35;;;2.13;;
71959;SDS011;59832;51.146;14.024;2023-07-31T17:29:10;5.45;;;2.30;;
71959;SDS011;59832;51.146;14.024;2023-07-31T17:31:37;3.13;;;2.15;;
71959;SDS011;59832;51.146;14.024;2023-07-31T17:34:08;2.95;;;2.38;;
71959;SDS011;59832;51.146;14.024;2023-07-31T17:36:35;2.60;;;1.90;;
71959;SDS011;59832;51.146;14.024;2023-07-31T17:39:01;3.65;;;1.83;;
71959;SDS011;59832;51.146;14.024;2023-07-31T17:41:29;2.83;;;2.00;;
71959;SDS011;59832;51.146;14.024;2023-07-31T17:43:57;3.20;;;2.35;;
71959;SDS011;59832;51.146;14.024;2023-07-31T17:46:23;3.08;;;2.40;;
71959;SDS011;59832;51.146;14.024;2023-07-31T17:48:50;2.40;;;2.20;;
71959;SDS011;59832;51.146;14.024;2023-07-31T17:51:16;2.80;;;2.30;;
71959;SDS011;59832;51.146;14.024;2023-07-31T17:53:43;3.90;;;2.80;;
71959;SDS011;59832;51.146;14.024;2023-07-31T17:56:09;4.03;;;2.47;;
71959;SDS011;59832;51.146;14.024;2023-07-31T17:58:36;3.90;;;2.20;;
71959;SDS011;59832;51.146;14.024;2023-07-31T18:01:02;3.00;;;2.13;;
71959;SDS011;59832;51.146;14.024;2023-07-31T18:03:29;2.65;;;2.00;;
71959;SDS011;59832;51.146;14.024;2023-07-31T18:05:56;3.22;;;2.35;;
71959;SDS011;59832;51.146;14.024;2023-07-31T18:08:22;2.10;;;1.83;;
71959;SDS011;59832;51.146;14.024;2023-07-31T18:10:49;3.55;;;2.15;;
71959;SDS011;59832;51.146;14.024;2023-07-31T18:13:15;2.58;;;2.38;;
71959;SDS011;59832;51.146;14.024;2023-07-31T18:18:09;2.85;;;1.98;;
71959;SDS011;59832;51.146;14.024;2023-07-31T18:20:36;5.57;;;2.33;;
71959;SDS011;59832;51.146;14.024;2023-07-31T18:23:03;3.13;;;2.25;;
71959;SDS011;59832;51.146;14.024;2023-07-31T18:25:29;2.85;;;2.15;;
71959;SDS011;59832;51.146;14.024;2023-07-31T18:27:56;2.42;;;2.00;;
71959;SDS011;59832;51.146;14.024;2023-07-31T18:30:22;2.33;;;2.10;;
71959;SDS011;59832;51.146;14.024;2023-07-31T18:32:49;2.83;;;2.20;;
71959;SDS011;59832;51.146;14.024;2023-07-31T18:35:15;5.70;;;2.25;;
71959;SDS011;59832;51.146;14.024;2023-07-31T18:37:43;2.72;;;2.40;;
71959;SDS011;59832;51.146;14.024;2023-07-31T18:40:09;3.20;;;2.30;;
71959;SDS011;59832;51.146;14.024;2023-07-31T18:42:36;2.20;;;2.00;;
71959;SDS011;59832;51.146;14.024;2023-07-31T18:45:03;4.55;;;2.40;;
71959;SDS011;59832;51.146;14.024;2023-07-31T18:47:31;2.50;;;2.30;;
71959;SDS011;59832;51.146;14.024;2023-07-31T18:49:58;2.20;;;2.00;;
71959;SDS011;59832;51.146;14.024;2023-07-31T18:52:24;6.38;;;2.45;;
71959;SDS011;59832;51.146;14.024;2023-07-31T18:54:50;4.25;;;2.08;;
71959;SDS011;59832;51.146;14.024;2023-07-31T18:57:17;3.05;;;2.17;;
71959;SDS011;59832;51.146;14.024;2023-07-31T18:59:43;3.78;;;2.30;;
71959;SDS011;59832;51.146;14.024;2023-07-31T19:02:10;2.30;;;2.10;;
71959;SDS011;59832;51.146;14.024;2023-07-31T19:04:36;2.55;;;2.17;;